Belocean — 9V8782 — position and weather

sailwx.info

Track history (hours):
 
Tides and Currents Weather Stations Pressure Air Temp Water Temp Dewpoint Dewpoint Depression Visibility Wind Speed Wind Dir Waves Ship Positions

Belocean

Last reported at 2016-Aug-20 07:34 UTC. Time now 2016-Aug-24 08:34 UTC.
Position S 24°09' W 045°54'.

Length 190 m; draft 13.1 m.

Type: Ship. MMSI: 563582000.

Date/timePositionNaut miles runAvg speedWind from/ knotsBaromVisibWave heightAir tempDewpointWater temp
2016-Aug-20 07:34S 24°09' W 045°54'1312.8
2016-Aug-20 06:33S 24°06' W 046°08'1212.0
2016-Aug-20 05:33S 24°03' W 046°20'6 5.7
2016-Aug-20 04:31S 23°57' W 046°18'2 0.1
2016-Aug-19 11:33S 23°59' W 046°17'5 5.5
2016-Aug-19 10:33S 24°04' W 046°19'3 2.8
2016-Aug-19 09:20S 24°08' W 046°19'0 0.0
2016-Aug-19 08:32S 24°08' W 046°19'0 0.0
2016-Aug-19 07:32S 24°08' W 046°19'0 0.0
2016-Aug-19 06:32S 24°08' W 046°19'0 0.0
2016-Aug-19 05:32S 24°08' W 046°19'0 0.0
2016-Aug-19 04:32S 24°08' W 046°19'0 0.0
2016-Aug-19 03:32S 24°08' W 046°19'0 0.0
2016-Aug-19 02:32S 24°08' W 046°19'0 0.0
2016-Aug-19 01:32S 24°08' W 046°19'0 0.0
2016-Aug-19 00:32S 24°08' W 046°19'0 0.0
2016-Aug-18 23:32S 24°08' W 046°19'0 0.0
2016-Aug-18 22:32S 24°08' W 046°19'0 0.0
2016-Aug-18 21:32S 24°08' W 046°19'0 0.0
2016-Aug-18 20:32S 24°08' W 046°19'0 0.0
2016-Aug-18 19:32S 24°08' W 046°19'0 0.0
2016-Aug-18 18:32S 24°08' W 046°19'0 0.0
2016-Aug-18 17:26S 24°08' W 046°19'0 0.0
2016-Aug-18 16:32S 24°08' W 046°19'0 0.1
2016-Aug-18 15:32S 24°08' W 046°19'0 0.0
2016-Aug-18 14:32S 24°08' W 046°19'0 0.0
2016-Aug-18 13:26S 24°08' W 046°19'0 0.0
2016-Aug-18 12:32S 24°08' W 046°19'0 0.0
2016-Aug-18 11:26S 24°08' W 046°19'0 0.0
2016-Aug-18 10:32S 24°08' W 046°19'0 0.0
2016-Aug-18 09:32S 24°08' W 046°19'0 0.0
2016-Aug-18 08:26S 24°08' W 046°19'0 0.1
2016-Aug-18 07:20S 24°08' W 046°19'0 0.0
2016-Aug-18 06:26S 24°08' W 046°19'0 0.1
2016-Aug-18 05:32S 24°08' W 046°19'0 0.1
2016-Aug-18 04:32S 24°08' W 046°19'0 0.0
2016-Aug-18 03:32S 24°08' W 046°19'0 0.0
2016-Aug-18 02:32S 24°08' W 046°19'0 0.0
2016-Aug-18 01:32S 24°08' W 046°19'0 0.0
2016-Aug-18 00:32S 24°08' W 046°19'0 0.1
2016-Aug-17 23:32S 24°08' W 046°19'0 0.0
2016-Aug-17 22:26S 24°08' W 046°19'0 0.2
2016-Aug-17 21:32S 24°08' W 046°19'0 0.1
2016-Aug-17 20:32S 24°08' W 046°19'0 0.0
2016-Aug-17 19:32S 24°08' W 046°19'0 0.0
2016-Aug-17 18:29S 24°08' W 046°19'0 0.0
2016-Aug-17 17:26S 24°08' W 046°19'0 0.0
2016-Aug-17 16:26S 24°08' W 046°19'0 0.0
2016-Aug-17 15:20S 24°08' W 046°19'0 0.0
2016-Aug-17 14:32S 24°08' W 046°19'0 0.0
2016-Aug-17 13:32S 24°08' W 046°19'0 0.1
2016-Aug-17 12:32S 24°08' W 046°19'0 0.0
2016-Aug-17 11:32S 24°08' W 046°19'0 0.0
2016-Aug-17 10:32S 24°08' W 046°19'0 0.0
2016-Aug-17 09:32S 24°08' W 046°19'0 0.0
2016-Aug-17 08:32S 24°08' W 046°19'0 0.1
2016-Aug-17 07:32S 24°08' W 046°19'0 0.0
2016-Aug-17 06:32S 24°08' W 046°19'0 0.0
2016-Aug-17 05:32S 24°08' W 046°19'0 0.0
2016-Aug-17 04:33S 24°08' W 046°19'5 5.1
2016-Aug-17 03:33S 24°10' W 046°23'1312.9
2016-Aug-17 02:33S 24°23' W 046°27'1313.2
2016-Aug-17 01:33S 24°34' W 046°36'1313.6
2016-Aug-17 00:34S 24°42' W 046°47'1413.8
2016-Aug-16 23:34S 24°51' W 046°59'1413.8
2016-Aug-16 22:33S 25°00' W 047°10'  
2016-Aug-13 03:21S 25°38' W 048°11'0 0.0
2016-Aug-13 02:33S 25°38' W 048°11'  
Track history (hours):
 
Tides and Currents Weather Stations Pressure Air Temp Water Temp Dewpoint Dewpoint Depression Visibility Wind Speed Wind Dir Waves Ship Positions

Belocean

Last reported at 2016-Aug-20 07:34 UTC. Time now 2016-Aug-24 08:34 UTC.
Position S 24°09' W 045°54'.

Length 190 m; draft 13.1 m.

Type: Ship. MMSI: 563582000.

Date/timePositionNaut miles runAvg speedWind from/ knotsBaromVisibWave heightAir tempDewpointWater temp
2016-Aug-20 07:34S 24°09' W 045°54'1312.8
2016-Aug-20 06:33S 24°06' W 046°08'1212.0
2016-Aug-20 05:33S 24°03' W 046°20'6 5.7
2016-Aug-20 04:31S 23°57' W 046°18'2 0.1
2016-Aug-19 11:33S 23°59' W 046°17'5 5.5
2016-Aug-19 10:33S 24°04' W 046°19'3 2.8
2016-Aug-19 09:20S 24°08' W 046°19'0 0.0
2016-Aug-19 08:32S 24°08' W 046°19'0 0.0
2016-Aug-19 07:32S 24°08' W 046°19'0 0.0
2016-Aug-19 06:32S 24°08' W 046°19'0 0.0
2016-Aug-19 05:32S 24°08' W 046°19'0 0.0
2016-Aug-19 04:32S 24°08' W 046°19'0 0.0
2016-Aug-19 03:32S 24°08' W 046°19'0 0.0
2016-Aug-19 02:32S 24°08' W 046°19'0 0.0
2016-Aug-19 01:32S 24°08' W 046°19'0 0.0
2016-Aug-19 00:32S 24°08' W 046°19'0 0.0
2016-Aug-18 23:32S 24°08' W 046°19'0 0.0
2016-Aug-18 22:32S 24°08' W 046°19'0 0.0
2016-Aug-18 21:32S 24°08' W 046°19'0 0.0
2016-Aug-18 20:32S 24°08' W 046°19'0 0.0
2016-Aug-18 19:32S 24°08' W 046°19'0 0.0
2016-Aug-18 18:32S 24°08' W 046°19'0 0.0
2016-Aug-18 17:26S 24°08' W 046°19'0 0.0
2016-Aug-18 16:32S 24°08' W 046°19'0 0.1
2016-Aug-18 15:32S 24°08' W 046°19'0 0.0
2016-Aug-18 14:32S 24°08' W 046°19'0 0.0
2016-Aug-18 13:26S 24°08' W 046°19'0 0.0
2016-Aug-18 12:32S 24°08' W 046°19'0 0.0
2016-Aug-18 11:26S 24°08' W 046°19'0 0.0
2016-Aug-18 10:32S 24°08' W 046°19'0 0.0
2016-Aug-18 09:32S 24°08' W 046°19'0 0.0
2016-Aug-18 08:26S 24°08' W 046°19'0 0.1
2016-Aug-18 07:20S 24°08' W 046°19'0 0.0
2016-Aug-18 06:26S 24°08' W 046°19'0 0.1
2016-Aug-18 05:32S 24°08' W 046°19'0 0.1
2016-Aug-18 04:32S 24°08' W 046°19'0 0.0
2016-Aug-18 03:32S 24°08' W 046°19'0 0.0
2016-Aug-18 02:32S 24°08' W 046°19'0 0.0
2016-Aug-18 01:32S 24°08' W 046°19'0 0.0
2016-Aug-18 00:32S 24°08' W 046°19'0 0.1
2016-Aug-17 23:32S 24°08' W 046°19'0 0.0
2016-Aug-17 22:26S 24°08' W 046°19'0 0.2
2016-Aug-17 21:32S 24°08' W 046°19'0 0.1
2016-Aug-17 20:32S 24°08' W 046°19'0 0.0
2016-Aug-17 19:32S 24°08' W 046°19'0 0.0
2016-Aug-17 18:29S 24°08' W 046°19'0 0.0
2016-Aug-17 17:26S 24°08' W 046°19'0 0.0
2016-Aug-17 16:26S 24°08' W 046°19'0 0.0
2016-Aug-17 15:20S 24°08' W 046°19'0 0.0
2016-Aug-17 14:32S 24°08' W 046°19'0 0.0
2016-Aug-17 13:32S 24°08' W 046°19'0 0.1
2016-Aug-17 12:32S 24°08' W 046°19'0 0.0
2016-Aug-17 11:32S 24°08' W 046°19'0 0.0
2016-Aug-17 10:32S 24°08' W 046°19'0 0.0
2016-Aug-17 09:32S 24°08' W 046°19'0 0.0
2016-Aug-17 08:32S 24°08' W 046°19'0 0.1
2016-Aug-17 07:32S 24°08' W 046°19'0 0.0
2016-Aug-17 06:32S 24°08' W 046°19'0 0.0
2016-Aug-17 05:32S 24°08' W 046°19'0 0.0
2016-Aug-17 04:33S 24°08' W 046°19'5 5.1
2016-Aug-17 03:33S 24°10' W 046°23'1312.9
2016-Aug-17 02:33S 24°23' W 046°27'1313.2
2016-Aug-17 01:33S 24°34' W 046°36'1313.6
2016-Aug-17 00:34S 24°42' W 046°47'1413.8
2016-Aug-16 23:34S 24°51' W 046°59'1413.8
2016-Aug-16 22:33S 25°00' W 047°10'  
2016-Aug-13 03:21S 25°38' W 048°11'0 0.0
2016-Aug-13 02:33S 25°38' W 048°11'  

Dump ship's entire track history